createdAt,value
2018-03-19T00:01:15.910Z,26.87
2018-03-19T00:03:43.380Z,29.50
2018-03-19T00:06:10.846Z,30.75
2018-03-19T00:08:39.083Z,29.33
2018-03-19T00:11:06.559Z,27.42
2018-03-19T00:13:34.034Z,26.47
2018-03-19T00:16:01.503Z,31.12
2018-03-19T00:18:29.743Z,29.13
2018-03-19T00:20:57.223Z,30.75
2018-03-19T00:23:24.693Z,35.88
2018-03-19T00:25:52.166Z,28.73
2018-03-19T00:28:19.629Z,29.98
2018-03-19T00:30:47.124Z,30.62
2018-03-19T00:33:14.582Z,29.63
2018-03-19T00:35:42.058Z,29.52
2018-03-19T00:38:09.521Z,26.12
2018-03-19T00:40:36.989Z,30.57
2018-03-19T00:43:04.454Z,32.08
2018-03-19T00:45:31.915Z,29.93
2018-03-19T00:48:00.149Z,27.85
2018-03-19T00:50:27.627Z,39.80
2018-03-19T00:52:55.097Z,32.70
2018-03-19T00:55:22.563Z,31.95
2018-03-19T00:57:50.823Z,29.90
2018-03-19T01:00:18.296Z,27.58
2018-03-19T01:02:45.766Z,32.38
2018-03-19T01:05:13.991Z,33.58
2018-03-19T01:07:41.466Z,31.92
2018-03-19T01:10:08.934Z,27.40
2018-03-19T01:12:36.419Z,30.23
2018-03-19T01:15:04.648Z,37.92
2018-03-19T01:17:32.120Z,32.97
2018-03-19T01:19:59.592Z,34.05
2018-03-19T01:22:27.050Z,34.90
2018-03-19T01:24:54.517Z,28.92
2018-03-19T01:27:21.996Z,28.43
2018-03-19T01:29:50.227Z,25.90
2018-03-19T01:32:17.703Z,30.45
2018-03-19T01:34:45.162Z,32.15
2018-03-19T01:37:12.629Z,34.85
2018-03-19T01:39:40.855Z,34.10
2018-03-19T01:42:08.354Z,32.45
2018-03-19T01:44:35.814Z,28.25
2018-03-19T01:47:03.299Z,31.45
2018-03-19T01:49:31.524Z,30.80
2018-03-19T01:51:58.998Z,34.03
2018-03-19T01:54:26.470Z,36.53
2018-03-19T01:56:53.938Z,41.37
2018-03-19T01:59:22.171Z,34.10
2018-03-19T02:01:49.647Z,34.80
2018-03-19T02:04:17.108Z,35.30
2018-03-19T02:06:44.580Z,38.33
2018-03-19T02:09:12.814Z,30.55
2018-03-19T02:11:40.286Z,32.30
2018-03-19T02:14:07.737Z,34.10
2018-03-19T02:16:35.219Z,33.67
2018-03-19T02:19:02.679Z,28.65
2018-03-19T02:21:30.155Z,31.30
2018-03-19T02:23:58.387Z,28.62
2018-03-19T02:26:25.866Z,29.65
2018-03-19T02:28:53.336Z,29.92
2018-03-19T02:31:21.594Z,30.27
2018-03-19T02:33:49.060Z,41.60
2018-03-19T02:36:16.526Z,36.10
2018-03-19T02:38:44.004Z,28.60
2018-03-19T02:41:12.240Z,28.92
2018-03-19T02:43:39.729Z,27.20
2018-03-19T02:46:07.187Z,27.48
2018-03-19T02:48:35.422Z,27.62
2018-03-19T02:51:02.883Z,26.55
2018-03-19T02:53:30.354Z,28.87
2018-03-19T02:55:57.825Z,31.25
2018-03-19T02:58:25.277Z,32.73
2018-03-19T03:00:52.750Z,34.22
2018-03-19T03:03:20.209Z,27.40
2018-03-19T03:05:48.450Z,27.52
2018-03-19T03:08:15.926Z,34.60
2018-03-19T03:10:43.385Z,27.92
2018-03-19T03:13:10.864Z,26.67
2018-03-19T03:15:39.096Z,33.45
2018-03-19T03:18:06.570Z,33.03
2018-03-19T03:20:34.031Z,28.90
2018-03-19T03:23:01.510Z,34.78
2018-03-19T03:25:29.747Z,31.45
2018-03-19T03:27:57.225Z,35.17
2018-03-19T03:30:24.689Z,33.50
2018-03-19T03:32:52.153Z,48.28
2018-03-19T03:35:19.621Z,33.92
2018-03-19T03:37:47.858Z,36.05
2018-03-19T03:40:15.338Z,38.00
2018-03-19T03:42:42.805Z,36.70
2018-03-19T03:45:10.279Z,30.53
2018-03-19T03:47:38.505Z,35.08
2018-03-19T03:50:05.975Z,43.03
2018-03-19T03:52:33.458Z,38.65
2018-03-19T03:55:00.926Z,39.60
2018-03-19T03:57:29.150Z,42.22
2018-03-19T03:59:56.618Z,39.72
2018-03-19T04:02:24.090Z,40.83
2018-03-19T04:04:51.542Z,35.47
2018-03-19T04:07:19.783Z,34.83
2018-03-19T04:09:47.246Z,38.42
2018-03-19T04:12:14.710Z,36.63
2018-03-19T04:14:42.174Z,34.13
2018-03-19T04:17:09.655Z,37.30
2018-03-19T04:19:37.112Z,37.20
2018-03-19T04:22:04.574Z,35.63
2018-03-19T04:24:32.037Z,35.37
2018-03-19T04:26:59.500Z,33.58
2018-03-19T04:29:26.954Z,32.85
2018-03-19T04:31:54.421Z,33.10
2018-03-19T04:34:21.887Z,34.17
2018-03-19T04:36:49.362Z,36.33
2018-03-19T04:39:17.596Z,33.03
2018-03-19T04:41:45.049Z,31.70
2018-03-19T04:44:12.510Z,38.03
2018-03-19T04:46:39.965Z,33.00
2018-03-19T04:49:08.210Z,33.17
2018-03-19T04:51:35.675Z,32.35
2018-03-19T04:54:03.155Z,38.07
2018-03-19T04:56:30.609Z,30.83
2018-03-19T04:58:58.075Z,33.17
2018-03-19T05:01:25.571Z,31.90
2018-03-19T05:03:53.007Z,29.60
2018-03-19T05:06:20.462Z,30.90
2018-03-19T05:08:47.925Z,28.95
2018-03-19T05:11:15.446Z,26.40
2018-03-19T05:13:42.874Z,28.92
2018-03-19T05:16:10.351Z,29.65
2018-03-19T05:18:37.818Z,32.65
2018-03-19T05:21:05.290Z,28.33
2018-03-19T05:23:32.760Z,30.70
2018-03-19T05:26:00.219Z,29.52
2018-03-19T05:28:27.687Z,31.58
2018-03-19T05:30:55.142Z,25.83
2018-03-19T05:33:22.601Z,24.67
2018-03-19T05:35:50.063Z,29.93
2018-03-19T05:38:17.530Z,31.60
2018-03-19T05:40:44.990Z,27.42
2018-03-19T05:43:12.470Z,26.30
2018-03-19T05:45:40.698Z,28.98
2018-03-19T05:48:08.225Z,27.47
2018-03-19T05:50:35.630Z,32.22
2018-03-19T05:53:03.100Z,29.73
2018-03-19T05:55:30.582Z,28.08
2018-03-19T05:57:58.804Z,26.50
2018-03-19T06:00:26.269Z,30.50
2018-03-19T06:02:54.515Z,26.37
2018-03-19T06:05:21.973Z,27.07
2018-03-19T06:07:49.444Z,31.30
2018-03-19T06:10:16.908Z,30.80
2018-03-19T06:12:44.374Z,31.85
2018-03-19T06:15:11.837Z,30.52
2018-03-19T06:17:39.314Z,30.23
2018-03-19T06:20:06.770Z,28.55
2018-03-19T06:22:34.250Z,40.47
2018-03-19T06:25:02.483Z,85.12
2018-03-19T06:27:29.942Z,28.63
2018-03-19T06:29:57.406Z,31.62
2018-03-19T06:32:24.858Z,26.03
2018-03-19T06:34:52.318Z,21.95
2018-03-19T06:37:19.769Z,31.10
2018-03-19T06:39:47.230Z,23.73
2018-03-19T06:42:14.697Z,22.90
2018-03-19T06:44:42.164Z,29.43
2018-03-19T06:47:09.672Z,26.47
2018-03-19T06:49:37.102Z,28.20
2018-03-19T06:52:05.321Z,23.83
2018-03-19T06:54:32.786Z,18.30
2018-03-19T06:57:00.251Z,25.17
2018-03-19T06:59:28.477Z,21.53
2018-03-19T07:01:56.706Z,30.53
2018-03-19T07:04:24.174Z,28.80
2018-03-19T07:06:51.634Z,23.13
2018-03-19T07:09:19.096Z,26.03
2018-03-19T07:11:46.549Z,22.27
2018-03-19T07:14:15.006Z,22.43
2018-03-19T07:16:42.465Z,30.57
2018-03-19T07:19:09.934Z,35.13
2018-03-19T07:21:37.393Z,22.70
2018-03-19T07:24:04.858Z,21.33
2018-03-19T07:26:32.327Z,19.57
2018-03-19T07:28:59.785Z,22.00
2018-03-19T07:31:27.238Z,22.23
2018-03-19T07:33:54.742Z,24.03
2018-03-19T07:36:22.187Z,28.50
2018-03-19T07:38:50.418Z,19.63
2018-03-19T07:41:17.884Z,18.40
2018-03-19T07:43:45.350Z,22.37
2018-03-19T07:46:12.806Z,18.13
2018-03-19T07:48:40.273Z,19.20
2018-03-19T07:51:07.733Z,25.03
2018-03-19T07:53:35.202Z,28.83
2018-03-19T07:56:03.430Z,23.40
2018-03-19T07:58:30.896Z,19.92
2018-03-19T08:00:58.352Z,19.73
2018-03-19T08:03:25.854Z,26.73
2018-03-19T08:05:54.087Z,30.10
2018-03-19T08:08:21.554Z,18.70
2018-03-19T08:10:49.018Z,16.63
2018-03-19T08:13:16.501Z,19.90
2018-03-19T08:15:44.726Z,20.33
2018-03-19T08:18:12.200Z,20.83
2018-03-19T08:20:39.669Z,22.55
2018-03-19T08:23:07.131Z,21.30
2018-03-19T08:25:34.590Z,22.20
2018-03-19T08:28:02.066Z,24.90
2018-03-19T08:30:30.359Z,19.53
2018-03-19T08:32:57.761Z,18.37
2018-03-19T08:35:25.226Z,20.53
2018-03-19T08:37:52.682Z,25.60
2018-03-19T08:40:20.168Z,20.00
2018-03-19T08:42:47.613Z,20.73
2018-03-19T08:45:15.077Z,22.37
2018-03-19T08:47:42.551Z,23.97
2018-03-19T08:50:10.782Z,21.90
2018-03-19T08:52:38.238Z,24.57
2018-03-19T08:55:05.715Z,19.50
2018-03-19T08:57:33.174Z,22.17
2018-03-19T09:00:00.659Z,31.23
2018-03-19T09:02:28.892Z,27.62
2018-03-19T09:04:56.365Z,27.40
2018-03-19T09:07:23.826Z,30.08
2018-03-19T09:09:51.316Z,27.40
2018-03-19T09:12:18.779Z,35.35
2018-03-19T09:17:14.038Z,25.92
2018-03-19T09:19:41.511Z,28.55
2018-03-19T09:22:08.974Z,25.12
2018-03-19T09:24:36.438Z,33.00
2018-03-19T09:27:03.887Z,22.97
2018-03-19T09:29:31.375Z,28.37
2018-03-19T09:31:58.842Z,27.40
2018-03-19T09:34:27.079Z,20.00
2018-03-19T09:36:54.545Z,18.77
2018-03-19T09:39:22.018Z,23.17
2018-03-19T09:41:49.484Z,17.57
2018-03-19T09:44:16.946Z,26.70
2018-03-19T09:46:44.407Z,22.53
2018-03-19T09:49:12.647Z,25.23
2018-03-19T09:51:40.101Z,23.67
2018-03-19T09:54:07.569Z,20.60
2018-03-19T09:56:35.023Z,42.70
2018-03-19T09:59:02.487Z,18.30
2018-03-19T10:01:29.949Z,17.70
2018-03-19T10:03:57.422Z,19.33
2018-03-19T10:06:24.898Z,18.80
2018-03-19T10:08:53.129Z,20.83
2018-03-19T10:11:20.595Z,19.93
2018-03-19T10:13:48.076Z,21.13
2018-03-19T10:16:15.566Z,23.67
2018-03-19T10:18:43.021Z,16.80
2018-03-19T10:21:11.239Z,18.87
2018-03-19T10:23:38.697Z,22.87
2018-03-19T10:26:06.173Z,22.37
2018-03-19T10:28:33.634Z,19.00
2018-03-19T10:31:01.103Z,21.47
2018-03-19T10:33:28.593Z,28.53
2018-03-19T10:35:56.038Z,21.87
2018-03-19T10:38:24.267Z,25.63
2018-03-19T10:40:51.742Z,28.90
2018-03-19T10:43:19.212Z,20.83
2018-03-19T10:45:46.695Z,24.10
2018-03-19T10:48:14.920Z,27.20
2018-03-19T10:50:42.394Z,20.70
2018-03-19T10:53:09.853Z,21.63
2018-03-19T10:55:37.323Z,22.23
2018-03-19T10:58:04.795Z,23.13
2018-03-19T11:00:33.041Z,26.23
2018-03-19T11:03:06.313Z,28.20
2018-03-19T11:05:39.434Z,31.63
2018-03-19T11:08:08.840Z,27.07
2018-03-19T11:10:36.316Z,26.20
2018-03-19T11:13:04.546Z,27.07
2018-03-19T11:15:32.016Z,26.50
2018-03-19T11:17:59.468Z,29.58
2018-03-19T11:20:26.951Z,31.48
2018-03-19T11:22:54.412Z,32.63
2018-03-19T11:25:21.881Z,30.57
2018-03-19T11:27:50.132Z,23.80
2018-03-19T11:30:17.616Z,26.25
2018-03-19T11:32:45.842Z,26.95
2018-03-19T11:35:14.075Z,28.02
2018-03-19T11:37:42.320Z,30.65
2018-03-19T11:40:09.803Z,29.87
2018-03-19T11:42:38.023Z,24.85
2018-03-19T11:45:05.542Z,27.55
2018-03-19T11:47:33.766Z,33.53
2018-03-19T11:50:01.247Z,29.83
2018-03-19T11:52:28.711Z,26.98
2018-03-19T11:54:56.188Z,29.40
2018-03-19T11:57:24.414Z,28.55
2018-03-19T11:59:51.904Z,31.15
2018-03-19T12:02:19.365Z,26.80
2018-03-19T12:04:46.885Z,28.80
2018-03-19T12:07:15.061Z,29.10
2018-03-19T12:09:42.530Z,26.65
2018-03-19T12:12:10.006Z,26.58
2018-03-19T12:14:37.467Z,26.23
2018-03-19T12:17:04.926Z,25.88
2018-03-19T12:19:32.398Z,26.77
2018-03-19T12:22:00.633Z,30.25
2018-03-19T12:24:28.111Z,31.42
2018-03-19T12:26:55.571Z,33.20
2018-03-19T12:29:23.034Z,28.35
2018-03-19T12:31:50.501Z,35.97
2018-03-19T12:34:17.978Z,30.17
2018-03-19T12:36:46.209Z,26.08
2018-03-19T12:39:13.663Z,30.63
2018-03-19T12:41:41.132Z,30.17
2018-03-19T12:44:08.604Z,27.13
2018-03-19T12:46:36.078Z,29.75
2018-03-19T12:49:04.296Z,29.77
2018-03-19T12:51:31.766Z,29.83
2018-03-19T12:53:59.244Z,28.42
2018-03-19T12:56:26.722Z,30.85
2018-03-19T12:58:54.193Z,26.92
2018-03-19T13:01:22.451Z,28.50
2018-03-19T13:03:49.900Z,28.75
2018-03-19T13:06:17.379Z,28.35
2018-03-19T13:08:45.628Z,28.15
2018-03-19T13:11:13.090Z,28.85
2018-03-19T13:13:40.559Z,31.40
2018-03-19T13:16:08.026Z,28.40
2018-03-19T13:18:36.246Z,28.10
2018-03-19T13:21:03.725Z,31.10
2018-03-19T13:23:31.193Z,28.05
2018-03-19T13:25:58.650Z,38.60
2018-03-19T13:28:26.106Z,32.17
2018-03-19T13:30:53.567Z,25.80
2018-03-19T13:33:21.030Z,31.87
2018-03-19T13:35:48.506Z,25.50
2018-03-19T13:38:15.964Z,29.60
2018-03-19T13:40:43.430Z,25.58
2018-03-19T13:43:11.654Z,23.73
2018-03-19T13:45:39.147Z,27.00
2018-03-19T13:48:06.614Z,30.20
2018-03-19T13:50:34.091Z,27.77
2018-03-19T13:53:02.334Z,29.63
2018-03-19T13:55:29.803Z,28.27
2018-03-19T13:57:57.275Z,28.90
2018-03-19T14:00:25.517Z,29.95
2018-03-19T14:02:52.970Z,29.75
2018-03-19T14:05:20.434Z,29.60
2018-03-19T14:07:47.890Z,26.37
2018-03-19T14:10:15.355Z,26.58
2018-03-19T14:12:42.851Z,26.60
2018-03-19T14:15:11.077Z,33.00
2018-03-19T14:17:38.538Z,33.77
2018-03-19T14:20:06.017Z,28.62
2018-03-19T14:22:33.503Z,24.77
2018-03-19T14:25:01.731Z,31.02
2018-03-19T14:27:29.242Z,29.40
2018-03-19T14:29:57.441Z,30.65
2018-03-19T14:32:24.913Z,29.87
2018-03-19T14:34:52.362Z,34.63
2018-03-19T14:37:19.838Z,30.75
2018-03-19T14:39:47.307Z,33.17
2018-03-19T14:42:14.778Z,33.17
2018-03-19T14:44:42.243Z,29.90
2018-03-19T14:47:09.730Z,29.80
2018-03-19T14:49:37.198Z,30.90
2018-03-19T14:52:04.665Z,33.17
2018-03-19T14:54:32.144Z,36.00
2018-03-19T14:56:59.757Z,30.90
2018-03-19T14:59:27.236Z,24.50
2018-03-19T15:01:54.721Z,31.60
2018-03-19T15:09:16.974Z,34.28
2018-03-19T15:11:44.444Z,34.50
2018-03-19T15:14:11.947Z,34.65
2018-03-19T15:16:39.373Z,34.63
2018-03-19T15:19:06.826Z,33.57
2018-03-19T15:21:34.294Z,38.63
2018-03-19T15:24:01.746Z,27.70
2018-03-19T15:26:29.223Z,28.30
2018-03-19T15:28:56.681Z,29.63
2018-03-19T15:31:24.204Z,28.23
2018-03-19T15:33:52.389Z,25.90
2018-03-19T15:36:19.861Z,32.20
2018-03-19T15:38:47.330Z,27.70
2018-03-19T15:41:14.802Z,27.83
2018-03-19T15:43:42.270Z,27.67
2018-03-19T15:46:10.720Z,29.10
2018-03-19T15:48:38.179Z,31.23
2018-03-19T15:51:05.635Z,28.40
2018-03-19T15:53:33.891Z,32.17
2018-03-19T15:56:01.350Z,41.67
2018-03-19T15:58:28.831Z,30.23
2018-03-19T16:00:56.286Z,26.03
2018-03-19T16:03:23.749Z,31.93
2018-03-19T16:05:51.205Z,31.07
2018-03-19T16:08:18.679Z,30.20
2018-03-19T16:10:46.133Z,40.77
2018-03-19T16:13:13.613Z,22.73
2018-03-19T16:15:41.830Z,34.50
2018-03-19T16:18:09.314Z,26.57
2018-03-19T16:20:36.778Z,30.40
2018-03-19T16:23:04.248Z,27.17
2018-03-19T16:25:31.707Z,35.67
2018-03-19T16:27:59.171Z,27.13
2018-03-19T16:30:27.414Z,26.67
2018-03-19T16:32:54.883Z,30.77
2018-03-19T16:35:22.346Z,22.37
2018-03-19T16:37:49.805Z,27.23
2018-03-19T16:40:17.265Z,32.80
2018-03-19T16:42:44.731Z,25.67
2018-03-19T16:45:12.184Z,27.67
2018-03-19T16:47:39.645Z,25.43
2018-03-19T16:50:07.108Z,32.90
2018-03-19T16:52:34.574Z,23.03
2018-03-19T16:55:02.796Z,33.37
2018-03-19T16:57:30.262Z,25.70
2018-03-19T16:59:57.741Z,31.23
2018-03-19T17:02:25.214Z,32.00
2018-03-19T17:04:52.675Z,30.73
2018-03-19T17:07:20.138Z,31.27
2018-03-19T17:09:48.372Z,26.03
2018-03-19T17:12:15.834Z,33.93
2018-03-19T17:14:43.295Z,30.73
2018-03-19T17:17:10.757Z,36.53
2018-03-19T17:19:38.210Z,38.30
2018-03-19T17:22:06.449Z,28.20
2018-03-19T17:24:33.925Z,30.80
2018-03-19T17:27:01.404Z,32.50
2018-03-19T17:29:28.867Z,33.90
2018-03-19T17:31:56.334Z,29.70
2018-03-19T17:34:23.815Z,27.10
2018-03-19T17:36:52.053Z,25.93
2018-03-19T17:39:20.287Z,28.80
2018-03-19T17:41:47.739Z,28.83
2018-03-19T17:44:15.215Z,36.83
2018-03-19T17:46:42.678Z,46.97
2018-03-19T17:49:10.150Z,34.33
2018-03-19T17:51:37.608Z,28.90
2018-03-19T17:54:05.099Z,25.40
2018-03-19T17:56:32.545Z,29.93
2018-03-19T17:59:00.014Z,28.87
2018-03-19T18:01:27.477Z,27.37
2018-03-19T18:03:54.951Z,33.97
2018-03-19T18:06:23.175Z,34.77
2018-03-19T18:08:50.637Z,34.40
2018-03-19T18:11:18.121Z,29.50
2018-03-19T18:13:45.599Z,27.03
2018-03-19T18:16:13.824Z,30.63
2018-03-19T18:18:41.303Z,38.00
2018-03-19T18:21:08.766Z,28.53
2018-03-19T18:23:36.237Z,42.23
2018-03-19T18:26:03.704Z,27.90
2018-03-19T18:28:31.947Z,31.03
2018-03-19T18:30:59.410Z,38.20
2018-03-19T18:33:26.886Z,31.33
2018-03-19T18:35:54.342Z,36.10
2018-03-19T18:38:21.805Z,30.67
2018-03-19T18:40:49.272Z,31.90
2018-03-19T18:43:17.514Z,36.23
2018-03-19T18:45:44.970Z,31.30
2018-03-19T18:48:12.442Z,32.63
2018-03-19T18:50:39.890Z,40.40
2018-03-19T18:53:07.354Z,32.87
2018-03-19T18:55:34.815Z,36.93
2018-03-19T18:58:02.275Z,35.53
2018-03-19T19:00:29.734Z,29.53
2018-03-19T19:02:57.200Z,32.83
2018-03-19T19:05:24.652Z,30.63
2018-03-19T19:07:52.118Z,35.53
2018-03-19T19:10:19.581Z,32.90
2018-03-19T19:12:47.046Z,26.13
2018-03-19T19:15:15.286Z,33.63
2018-03-19T19:17:42.760Z,27.50
2018-03-19T19:20:10.281Z,32.13
2018-03-19T19:22:38.508Z,33.43
2018-03-19T19:25:05.967Z,40.57
2018-03-19T19:27:33.442Z,33.83
2018-03-19T19:30:01.720Z,46.57
2018-03-19T19:32:29.959Z,33.17
2018-03-19T19:34:58.923Z,32.20
2018-03-19T19:37:26.382Z,33.13
2018-03-19T19:39:53.844Z,32.93
2018-03-19T19:42:21.310Z,26.20
2018-03-19T19:44:48.774Z,28.43
2018-03-19T19:47:16.238Z,27.53
2018-03-19T19:49:43.705Z,39.37
2018-03-19T19:52:11.159Z,30.63
2018-03-19T19:54:38.632Z,33.90
2018-03-19T19:57:06.091Z,34.40
2018-03-19T19:59:33.555Z,33.73
2018-03-19T20:02:01.010Z,32.43
2018-03-19T20:04:28.484Z,30.30
2018-03-19T20:06:56.703Z,30.77
2018-03-19T20:09:24.177Z,36.20
2018-03-19T20:11:51.641Z,37.13
2018-03-19T20:14:19.881Z,44.00
2018-03-19T20:16:47.345Z,36.80
2018-03-19T20:19:14.802Z,41.27
2018-03-19T20:21:42.265Z,35.20
2018-03-19T20:24:09.729Z,35.97
2018-03-19T20:26:37.186Z,34.93
2018-03-19T20:29:04.661Z,38.80
2018-03-19T20:31:32.960Z,33.73
2018-03-19T20:34:00.417Z,28.37
2018-03-19T20:36:27.890Z,21.70
2018-03-19T20:38:56.126Z,32.53
2018-03-19T20:41:23.653Z,32.33
2018-03-19T20:43:51.058Z,24.10
2018-03-19T20:46:18.515Z,32.57
2018-03-19T20:48:45.987Z,27.20
2018-03-19T20:51:13.437Z,25.43
2018-03-19T20:53:40.912Z,37.83
2018-03-19T20:56:09.133Z,26.17
2018-03-19T20:58:36.598Z,28.97
2018-03-19T21:01:04.065Z,38.87
2018-03-19T21:03:31.531Z,30.77
2018-03-19T21:05:58.993Z,29.17
2018-03-19T21:08:26.471Z,32.57
2018-03-19T21:10:53.939Z,40.03
2018-03-19T21:13:22.171Z,47.03
2018-03-19T21:15:49.630Z,34.70
2018-03-19T21:18:17.093Z,34.40
2018-03-19T21:20:44.554Z,37.40
2018-03-19T21:23:12.035Z,43.53
2018-03-19T21:25:39.494Z,35.00
2018-03-19T21:28:06.960Z,41.43
2018-03-19T21:30:35.187Z,31.13
2018-03-19T21:33:02.644Z,38.57
2018-03-19T21:35:30.120Z,41.53
2018-03-19T21:37:57.583Z,45.20
2018-03-19T21:40:25.046Z,44.80
2018-03-19T21:42:52.510Z,35.90
2018-03-19T21:45:19.999Z,49.83
2018-03-19T21:47:48.214Z,44.47
2018-03-19T21:50:15.690Z,44.63
2018-03-19T21:52:43.137Z,48.63
2018-03-19T21:55:10.597Z,41.43
2018-03-19T21:57:38.060Z,43.87
2018-03-19T22:00:05.532Z,36.27
2018-03-19T22:02:32.995Z,44.53
2018-03-19T22:05:00.458Z,48.87
2018-03-19T22:07:27.917Z,43.03
2018-03-19T22:09:55.379Z,42.57
2018-03-19T22:12:22.853Z,41.80
2018-03-19T22:14:51.086Z,39.27
2018-03-19T22:17:18.567Z,45.53
2018-03-19T22:19:46.036Z,42.27
2018-03-19T22:22:14.273Z,41.73
2018-03-19T22:24:41.742Z,35.77
2018-03-19T22:27:09.206Z,55.33
2018-03-19T22:29:36.675Z,50.53
2018-03-19T22:32:04.134Z,39.90
2018-03-19T22:34:31.605Z,41.63
2018-03-19T22:36:59.834Z,35.63
2018-03-19T22:39:27.317Z,49.22
2018-03-19T22:41:54.795Z,47.60
2018-03-19T22:44:23.031Z,45.65
2018-03-19T22:46:50.483Z,41.20
2018-03-19T22:49:17.952Z,37.90
2018-03-19T22:51:45.408Z,41.53
2018-03-19T22:54:12.878Z,31.53
2018-03-19T22:56:40.340Z,37.03
2018-03-19T22:59:07.805Z,37.50
2018-03-19T23:01:35.266Z,46.77
2018-03-19T23:04:02.750Z,34.50
2018-03-19T23:06:30.988Z,42.27
2018-03-19T23:08:58.449Z,29.10
2018-03-19T23:11:25.906Z,36.60
2018-03-19T23:13:53.366Z,39.90
2018-03-19T23:16:20.822Z,41.97
2018-03-19T23:18:48.290Z,44.15
2018-03-19T23:21:15.764Z,40.80
2018-03-19T23:23:43.998Z,44.47
2018-03-19T23:26:11.460Z,43.70
2018-03-19T23:28:38.905Z,39.15
2018-03-19T23:31:06.370Z,40.73
2018-03-19T23:33:33.830Z,40.40
2018-03-19T23:36:02.075Z,43.67
2018-03-19T23:38:29.550Z,41.03
2018-03-19T23:40:57.005Z,43.17
2018-03-19T23:43:24.458Z,44.10
2018-03-19T23:45:51.923Z,40.25
2018-03-19T23:48:19.378Z,45.83
2018-03-19T23:50:46.859Z,37.45
2018-03-19T23:53:14.320Z,47.00
2018-03-19T23:55:41.788Z,39.63
2018-03-19T23:58:09.247Z,42.40
